Inlet Island, Washington
Current Conditions -  °F | °C
As of 2:58 AM on Monday 20 Oct 2014 (Local Time) from KTCM Reporting Station
Light Rain Light Rain  
Wind Chill: 57°   Ceiling: 7500
Heat Index: 57°   Visibility: 8mi
Dew Point: 57°   Wind: 5mph
Humidity: 100%   Direction: 110°ESE
Pressure: 29.71"   Gusts: NA
Location:  47.1874°N, 122.164°W
Report Text: KTCM 200958Z AUTO 11004KT 8SM -RA FEW044 OVC075 14/14 A2971 RMK AO2 SLP063 P0009 T01410141
Loading
Personal Weather Stations






























Interactive Weather Map
Tropical Storm Tracking
New forecast layout! Learn more

10-Day Weather Forecast

Advertisements
Track Severe Weather on mobile